Time;durP1;ratioP1;P1;durP2;ratioP2;P2;SDS_P1;SDS_P2;PMS_P1;PMS_P2;Temp;Humidity;BMP_temperature;BMP_pressure;BME280_temperature;BME280_humidity;BME280_pressure;Samples;Min_cycle;Max_cycle;Signal;HPM_P1;HPM_P2
2022/08/19 12:01:46;;;;;;;12.82;11.48;;;24.90;61.70;;;;;;5090022;27;46139;-60
2022/08/19 12:04:12;;;;;;;13.38;12.05;;;24.80;61.40;;;;;;5075433;27;45335;-60
2022/08/19 12:06:38;;;;;;;12.25;11.02;;;25.00;61.40;;;;;;5079654;27;44999;-59
2022/08/19 12:09:05;;;;;;;12.68;11.30;;;25.20;60.60;;;;;;5065293;27;45688;-59
2022/08/19 12:11:31;;;;;;;12.77;10.93;;;25.40;60.10;;;;;;5060048;27;46008;-61
2022/08/19 12:13:56;;;;;;;11.57;10.40;;;25.70;59.70;;;;;;5082622;27;45232;-59
2022/08/19 12:16:27;;;;;;;11.40;10.40;;;25.90;59.20;;;;;;5081264;27;45310;-60
2022/08/19 12:18:53;;;;;;;10.95;9.95;;;26.00;59.50;;;;;;5074370;27;45644;-60
2022/08/19 12:21:21;;;;;;;11.98;10.77;;;26.20;58.60;;;;;;4128803;28;10001703;-61
2022/08/19 12:23:47;;;;;;;11.27;10.18;;;26.30;58.50;;;;;;5019948;28;45071;-60
2022/08/19 12:26:13;;;;;;;11.90;10.70;;;26.50;58.30;;;;;;5022230;28;46241;-60
2022/08/19 12:28:38;;;;;;;10.60;9.50;;;26.60;58.20;;;;;;5018814;28;45537;-58
2022/08/19 12:31:04;;;;;;;12.27;10.97;;;26.70;58.10;;;;;;5020476;28;45361;-59
2022/08/19 12:33:31;;;;;;;12.13;10.85;;;26.80;58.10;;;;;;5023656;28;45579;-59
2022/08/19 12:36:01;;;;;;;12.65;11.30;;;26.80;58.00;;;;;;5022294;28;47138;-60
2022/08/19 12:38:26;;;;;;;12.38;11.18;;;26.90;57.90;;;;;;5021472;28;45262;-60
2022/08/19 12:40:52;;;;;;;14.57;12.07;;;27.00;57.80;;;;;;5024006;28;45179;-59
2022/08/19 12:43:20;;;;;;;19.75;13.85;;;27.10;57.80;;;;;;5026126;28;45828;-61
2022/08/19 12:45:45;;;;;;;17.33;13.13;;;27.10;57.70;;;;;;5018677;28;46343;-60
2022/08/19 12:48:11;;;;;;;14.20;12.73;;;27.20;58.30;;;;;;5022887;28;45075;-60
2022/08/19 12:50:41;;;;;;;15.27;13.50;;;27.20;57.70;;;;;;5038343;28;45389;-61
2022/08/19 12:53:07;;;;;;;14.20;12.30;;;27.30;57.90;;;;;;5022633;28;45456;-59
2022/08/19 12:55:32;;;;;;;15.30;12.87;;;27.30;57.90;;;;;;5024102;28;45645;-60
2022/08/19 12:58:00;;;;;;;14.87;12.43;;;27.30;58.00;;;;;;5027202;28;45093;-59
2022/08/19 13:00:26;;;;;;;15.07;12.63;;;27.30;58.10;;;;;;5017591;28;45235;-61
2022/08/19 13:02:52;;;;;;;13.47;12.07;;;27.30;58.10;;;;;;5018807;28;45711;-61
2022/08/19 13:05:22;;;;;;;13.90;11.40;;;27.40;58.10;;;;;;5024520;28;45498;-61
2022/08/19 13:07:47;;;;;;;14.07;12.68;;;27.40;58.10;;;;;;5029957;28;45105;-60
2022/08/19 13:10:16;;;;;;;14.45;12.32;;;27.40;58.00;;;;;;5027354;28;45510;-61
2022/08/19 13:12:42;;;;;;;13.55;11.90;;;27.40;57.90;;;;;;5032418;28;44771;-61
2022/08/19 13:15:08;;;;;;;14.70;13.20;;;27.50;58.00;;;;;;5034687;28;46037;-61
2022/08/19 13:17:34;;;;;;;13.88;12.43;;;27.50;58.00;;;;;;5013843;28;45154;-61
2022/08/19 13:20:00;;;;;;;13.65;12.25;;;27.50;57.90;;;;;;5013041;28;45448;-61
2022/08/19 13:22:26;;;;;;;13.30;11.77;;;27.50;57.80;;;;;;5012192;28;45312;-61
2022/08/19 13:24:52;;;;;;;13.52;12.13;;;27.50;57.90;;;;;;5018158;28;46245;-60
2022/08/19 13:27:18;;;;;;;12.18;10.98;;;27.50;57.80;;;;;;5011257;28;45305;-61
2022/08/19 13:35:14;;;;;;;12.20;10.93;;;27.60;57.70;;;;;;5009762;28;46460;-59
2022/08/19 13:37:43;;;;;;;12.95;11.05;;;27.60;57.60;;;;;;5010774;28;45290;-61
2022/08/19 13:40:14;;;;;;;14.02;12.18;;;27.60;57.60;;;;;;5009924;28;45536;-61
2022/08/19 13:42:40;;;;;;;15.63;12.55;;;27.60;57.50;;;;;;5009960;28;45383;-60
2022/08/19 13:45:06;;;;;;;14.90;13.37;;;27.60;57.40;;;;;;5013192;28;46078;-61
2022/08/19 13:47:34;;;;;;;16.35;12.77;;;27.60;57.30;;;;;;5014044;28;45300;-61
2022/08/19 13:50:02;;;;;;;14.90;12.68;;;27.60;57.20;;;;;;5008007;28;44820;-61
2022/08/19 13:52:28;;;;;;;16.20;12.95;;;27.60;57.10;;;;;;5008094;28;45376;-61
2022/08/19 13:54:56;;;;;;;20.02;14.70;;;27.70;57.10;;;;;;5014890;28;45620;-61
2022/08/19 13:57:22;;;;;;;18.73;12.85;;;27.70;57.00;;;;;;5008637;28;45193;-60
2022/08/19 13:59:47;;;;;;;16.08;12.23;;;27.70;56.90;;;;;;5008064;28;45209;-61
2022/08/19 14:02:13;;;;;;;15.53;12.47;;;27.70;56.90;;;;;;5006642;28;45351;-61
2022/08/19 14:04:39;;;;;;;13.82;12.00;;;27.70;56.90;;;;;;5004226;28;46044;-61
2022/08/19 14:07:05;;;;;;;13.80;11.43;;;27.70;56.90;;;;;;5009978;28;45587;-60
2022/08/19 14:09:30;;;;;;;13.20;11.00;;;27.70;56.90;;;;;;5010621;28;45395;-60
2022/08/19 14:11:56;;;;;;;12.07;10.02;;;27.70;56.90;;;;;;5008959;28;45265;-61
2022/08/19 14:14:21;;;;;;;14.43;10.90;;;27.70;56.90;;;;;;5012742;28;46018;-61
2022/08/19 14:16:48;;;;;;;11.68;10.48;;;27.70;57.00;;;;;;5013044;28;45300;-61
2022/08/19 14:19:13;;;;;;;12.55;9.93;;;27.70;56.90;;;;;;5008554;28;45365;-61
2022/08/19 14:21:40;;;;;;;9.93;8.93;;;27.70;56.80;;;;;;5008777;28;45291;-60
2022/08/19 14:24:06;;;;;;;10.55;8.70;;;27.70;56.80;;;;;;5011379;28;46331;-61
2022/08/19 14:26:32;;;;;;;9.05;8.15;;;27.70;56.70;;;;;;5013698;28;45037;-61
2022/08/19 14:28:58;;;;;;;8.52;7.65;;;27.70;56.60;;;;;;5014512;28;45760;-61
2022/08/19 14:31:24;;;;;;;8.30;7.40;;;27.60;56.30;;;;;;5007992;28;45662;-60
2022/08/19 14:33:50;;;;;;;8.37;7.00;;;27.60;56.10;;;;;;5004537;28;46187;-60
2022/08/19 14:36:16;;;;;;;7.32;6.50;;;27.60;56.00;;;;;;5004534;28;45574;-61
2022/08/19 14:38:42;;;;;;;6.73;6.13;;;27.60;55.90;;;;;;5007850;28;44979;-61
2022/08/19 14:41:16;;;;;;;7.13;6.40;;;27.50;55.80;;;;;;5007984;28;45496;-60
2022/08/19 14:43:45;;;;;;;6.33;5.73;;;27.60;55.70;;;;;;5013874;28;46149;-60
2022/08/19 14:46:12;;;;;;;7.10;6.15;;;27.60;55.60;;;;;;5010602;28;44724;-61
2022/08/19 14:48:38;;;;;;;6.25;5.53;;;27.50;55.30;;;;;;5023347;28;45417;-61
2022/08/19 14:51:05;;;;;;;8.02;6.22;;;27.50;55.30;;;;;;5011169;28;45376;-60
2022/08/19 14:53:33;;;;;;;5.95;5.35;;;27.50;55.10;;;;;;5014528;28;46053;-61
2022/08/19 14:55:58;;;;;;;6.95;4.97;;;27.50;55.00;;;;;;5013622;28;45356;-59
2022/08/19 14:58:24;;;;;;;5.30;4.80;;;27.50;54.80;;;;;;5007057;28;44796;-61
2022/08/19 15:00:50;;;;;;;5.63;4.95;;;27.50;54.80;;;;;;5006865;28;45328;-61
2022/08/19 15:03:15;;;;;;;5.65;4.70;;;27.50;54.80;;;;;;5008890;28;46188;-60
2022/08/19 15:05:41;;;;;;;7.95;6.68;;;27.50;54.80;;;;;;5005496;28;45611;-61
2022/08/19 15:08:06;;;;;;;7.07;6.20;;;27.40;54.70;;;;;;5012941;28;45574;-59
2022/08/19 15:10:32;;;;;;;7.90;5.90;;;27.40;54.70;;;;;;5011095;28;45921;-61
2022/08/19 15:12:59;;;;;;;7.78;6.30;;;27.40;54.70;;;;;;5006151;28;45459;-61
2022/08/19 15:15:25;;;;;;;10.40;5.75;;;27.40;54.60;;;;;;5008296;28;46281;-61
2022/08/19 15:17:50;;;;;;;7.63;5.68;;;27.40;54.50;;;;;;5008975;28;45226;-61
2022/08/19 15:20:18;;;;;;;7.40;5.10;;;27.40;54.40;;;;;;5008504;28;45305;-62
2022/08/19 15:22:44;;;;;;;7.63;5.40;;;27.40;54.30;;;;;;5008442;28;45433;-60
2022/08/19 15:25:11;;;;;;;7.10;5.13;;;27.40;54.10;;;;;;5011101;28;45330;-61
2022/08/19 15:27:38;;;;;;;6.60;4.75;;;27.40;54.10;;;;;;5006434;28;45553;-61
2022/08/19 15:30:04;;;;;;;5.90;4.33;;;27.30;53.90;;;;;;4999686;28;45067;-61
2022/08/19 15:32:30;;;;;;;4.85;3.92;;;27.40;53.80;;;;;;5005703;28;46572;-61
2022/08/19 15:34:55;;;;;;;5.47;3.95;;;27.30;53.70;;;;;;5000957;28;46731;-61
2022/08/19 15:37:22;;;;;;;5.30;4.00;;;27.30;53.50;;;;;;5007693;28;44666;-61
2022/08/19 15:39:48;;;;;;;5.45;3.80;;;27.30;53.50;;;;;;5007499;28;45277;-61
2022/08/19 15:42:14;;;;;;;4.32;3.88;;;27.30;53.40;;;;;;4999895;28;47265;-60
2022/08/19 15:44:39;;;;;;;4.80;3.40;;;27.30;53.50;;;;;;5007135;28;45650;-61
2022/08/19 15:47:05;;;;;;;9.40;6.20;;;27.30;53.40;;;;;;5003957;28;45541;-60
2022/08/19 15:49:31;;;;;;;13.93;8.20;;;27.30;53.30;;;;;;5002394;28;45356;-60
2022/08/19 15:51:58;;;;;;;10.25;6.35;;;27.30;53.40;;;;;;5004973;28;45958;-61
2022/08/19 15:54:24;;;;;;;13.77;7.50;;;27.20;53.40;;;;;;5007127;28;47802;-61
2022/08/19 16:07:49;;;;;;;8.07;4.90;;;27.10;53.50;;;;;;5001188;28;45374;-60
2022/08/19 16:10:15;;;;;;;7.75;4.93;;;27.10;53.50;;;;;;5021014;28;45637;-61
2022/08/19 16:12:41;;;;;;;6.80;4.68;;;27.10;53.60;;;;;;5005736;28;46410;-61
2022/08/19 16:15:08;;;;;;;8.30;4.15;;;27.10;53.60;;;;;;5004226;28;45292;-61
2022/08/19 16:17:34;;;;;;;6.50;4.05;;;27.10;53.60;;;;;;5007173;28;45538;-61
2022/08/19 16:20:01;;;;;;;6.97;4.33;;;27.10;53.70;;;;;;5003774;28;45784;-61
2022/08/19 16:22:33;;;;;;;5.32;3.88;;;27.10;53.70;;;;;;5004584;28;45215;-60
2022/08/19 16:24:59;;;;;;;5.53;4.03;;;27.00;53.60;;;;;;5004581;28;45381;-61
2022/08/19 16:27:24;;;;;;;5.82;4.05;;;27.00;53.60;;;;;;5004672;28;45925;-61
2022/08/19 16:29:51;;;;;;;4.95;3.40;;;27.00;53.50;;;;;;5001274;28;45734;-60
2022/08/19 16:32:16;;;;;;;5.05;3.53;;;27.00;53.50;;;;;;5002941;28;46151;-59
2022/08/19 16:34:42;;;;;;;5.28;3.50;;;27.00;53.40;;;;;;5006100;28;45064;-60
2022/08/19 16:37:08;;;;;;;4.13;3.60;;;27.00;53.40;;;;;;5006168;28;45176;-61
2022/08/19 16:39:34;;;;;;;4.40;3.43;;;27.00;53.40;;;;;;5001869;28;45862;-59
2022/08/19 16:42:00;;;;;;;5.95;4.30;;;27.00;53.40;;;;;;5005182;28;46903;-61
2022/08/19 16:44:26;;;;;;;8.20;5.90;;;27.00;53.50;;;;;;5006281;28;45227;-61
2022/08/19 16:46:52;;;;;;;8.43;6.15;;;27.00;53.40;;;;;;5007598;28;45535;-61
2022/08/19 16:49:18;;;;;;;8.30;5.45;;;27.00;53.50;;;;;;5005233;28;45271;-60
2022/08/19 16:51:44;;;;;;;11.70;6.32;;;27.00;53.40;;;;;;5006603;28;46113;-60
2022/08/19 16:54:10;;;;;;;8.05;5.57;;;27.00;53.40;;;;;;5009169;28;46527;-59
2022/08/19 16:56:35;;;;;;;8.43;5.70;;;27.00;53.30;;;;;;5008717;28;45664;-61
2022/08/19 16:59:01;;;;;;;7.57;5.30;;;27.00;53.30;;;;;;5009198;28;45191;-60
2022/08/19 17:01:27;;;;;;;7.50;5.35;;;27.10;53.40;;;;;;5003889;28;45358;-60
2022/08/19 17:03:53;;;;;;;6.68;4.93;;;27.10;53.40;;;;;;5006362;28;45470;-60
2022/08/19 17:06:21;;;;;;;7.25;4.97;;;27.10;53.30;;;;;;5007933;28;45260;-60
2022/08/19 17:08:48;;;;;;;7.20;4.53;;;27.10;53.30;;;;;;5008483;28;45554;-60
2022/08/19 17:11:14;;;;;;;6.72;5.05;;;27.10;53.20;;;;;;5007657;28;45995;-61
2022/08/19 17:13:39;;;;;;;6.53;4.60;;;27.10;53.10;;;;;;5007770;28;45355;-59
2022/08/19 17:16:05;;;;;;;6.60;4.70;;;27.20;53.10;;;;;;5006802;28;45249;-61
2022/08/19 17:18:31;;;;;;;7.03;4.33;;;27.10;53.10;;;;;;5010323;28;46241;-61
2022/08/19 17:20:58;;;;;;;7.57;4.40;;;27.20;53.10;;;;;;5002695;28;46065;-60
2022/08/19 17:23:24;;;;;;;5.90;4.23;;;27.20;53.10;;;;;;5007237;28;45451;-59
2022/08/19 17:25:49;;;;;;;6.07;4.25;;;27.20;53.10;;;;;;5005703;28;45324;-61
2022/08/19 17:28:17;;;;;;;6.93;4.05;;;27.20;53.10;;;;;;5010127;28;45467;-61
2022/08/19 17:30:43;;;;;;;5.60;3.95;;;27.20;53.00;;;;;;5005769;28;46181;-62
2022/08/19 17:33:09;;;;;;;4.30;3.70;;;27.20;53.00;;;;;;5006209;28;45580;-59
2022/08/19 17:35:35;;;;;;;4.18;3.70;;;27.20;53.00;;;;;;5004578;28;47024;-61
2022/08/19 17:38:05;;;;;;;5.50;4.00;;;27.20;53.00;;;;;;5007019;28;45194;-61
2022/08/19 17:40:31;;;;;;;6.32;4.00;;;27.20;53.00;;;;;;5004630;28;46075;-61
2022/08/19 17:42:56;;;;;;;5.05;3.83;;;27.20;52.90;;;;;;5008397;28;45322;-61
2022/08/19 17:45:23;;;;;;;4.93;4.00;;;27.30;52.90;;;;;;5006324;28;45454;-59
2022/08/19 17:47:48;;;;;;;6.73;4.40;;;27.30;52.90;;;;;;5007522;28;45293;-61
2022/08/19 17:50:15;;;;;;;4.90;3.90;;;27.30;52.90;;;;;;5007619;28;46111;-59
2022/08/19 17:52:41;;;;;;;5.85;3.78;;;27.30;52.90;;;;;;5005815;28;45205;-61
2022/08/19 17:55:09;;;;;;;5.65;4.13;;;27.20;52.80;;;;;;5007195;28;45237;-61
2022/08/19 17:57:35;;;;;;;6.15;4.10;;;27.30;52.80;;;;;;5007839;28;45221;-61
2022/08/19 18:00:00;;;;;;;3.63;3.33;;;27.30;52.80;;;;;;5007002;28;46108;-60
2022/08/19 18:02:26;;;;;;;5.07;3.80;;;27.30;52.70;;;;;;5009522;28;45425;-61
2022/08/19 18:04:52;;;;;;;4.60;3.97;;;27.30;52.70;;;;;;5001659;28;44730;-59
2022/08/19 18:07:20;;;;;;;3.80;3.27;;;27.30;52.60;;;;;;5005016;28;45271;-61
2022/08/19 18:09:50;;;;;;;3.60;3.15;;;27.30;52.50;;;;;;5010072;28;47946;-60
2022/08/19 18:12:20;;;;;;;3.92;3.13;;;27.30;52.50;;;;;;5009792;28;45451;-60
2022/08/19 18:14:46;;;;;;;4.78;3.40;;;27.30;52.40;;;;;;5011507;28;45836;-60
2022/08/19 18:17:16;;;;;;;4.57;3.03;;;27.30;52.20;;;;;;5008309;28;46384;-61
2022/08/19 18:19:42;;;;;;;4.88;3.20;;;27.30;52.20;;;;;;5009423;28;46192;-61
2022/08/19 18:22:08;;;;;;;4.20;2.80;;;27.30;52.10;;;;;;5007918;28;45385;-60
2022/08/19 18:24:37;;;;;;;3.47;2.70;;;27.30;52.10;;;;;;5016945;28;45192;-61
2022/08/19 18:27:03;;;;;;;4.35;3.25;;;27.30;52.10;;;;;;5007567;28;45432;-61
2022/08/19 18:29:32;;;;;;;3.25;2.80;;;27.30;52.10;;;;;;5007317;28;46165;-61
2022/08/19 18:31:57;;;;;;;3.35;2.97;;;27.30;52.00;;;;;;5016232;28;44780;-59
2022/08/19 18:34:23;;;;;;;3.87;2.80;;;27.30;52.00;;;;;;5007705;28;44832;-60
2022/08/19 18:36:49;;;;;;;3.00;2.70;;;27.30;52.00;;;;;;5004861;28;45444;-60
2022/08/19 18:50:12;;;;;;;4.80;2.73;;;27.30;51.70;;;;;;5008810;28;47127;-60
2022/08/19 18:52:38;;;;;;;3.37;2.80;;;27.40;51.70;;;;;;5008199;28;45519;-60
2022/08/19 18:55:04;;;;;;;3.10;2.80;;;27.30;51.60;;;;;;5007103;28;45290;-60
2022/08/19 18:57:30;;;;;;;3.42;2.55;;;27.30;51.60;;;;;;5006176;28;44711;-59
2022/08/19 18:59:56;;;;;;;3.47;2.90;;;27.40;51.70;;;;;;5005608;28;46812;-60
2022/08/19 19:02:23;;;;;;;3.38;2.80;;;27.40;51.60;;;;;;5005847;28;45456;-61
2022/08/19 19:04:48;;;;;;;4.35;2.80;;;27.40;51.60;;;;;;5005426;28;45573;-61
2022/08/19 19:07:14;;;;;;;3.00;2.70;;;27.40;51.50;;;;;;5006175;28;44806;-59
2022/08/19 19:09:39;;;;;;;4.30;3.00;;;27.40;51.50;;;;;;5003745;28;46579;-61
2022/08/19 19:12:09;;;;;;;3.13;2.63;;;27.40;51.40;;;;;;5008126;28;45482;-61
2022/08/19 19:14:37;;;;;;;3.20;2.90;;;27.40;51.50;;;;;;5008608;28;45550;-60
2022/08/19 19:17:09;;;;;;;3.88;2.63;;;27.40;51.40;;;;;;5007236;28;45044;-60
2022/08/19 19:19:35;;;;;;;3.92;2.80;;;27.40;51.50;;;;;;5006238;28;45476;-60
2022/08/19 19:22:01;;;;;;;3.50;2.70;;;27.40;51.50;;;;;;5007387;28;44858;-61
2022/08/19 19:24:29;;;;;;;3.00;2.63;;;27.30;51.40;;;;;;5007666;28;45140;-61
2022/08/19 19:26:54;;;;;;;2.97;2.67;;;27.30;51.40;;;;;;5008067;28;45630;-60
2022/08/19 19:29:20;;;;;;;3.85;2.70;;;27.30;51.60;;;;;;5004937;28;47003;-61
2022/08/19 19:31:46;;;;;;;4.20;2.70;;;27.30;51.40;;;;;;5006641;28;45528;-58
2022/08/19 19:34:12;;;;;;;3.08;2.63;;;27.40;51.50;;;;;;5005047;28;45363;-61
2022/08/19 19:36:38;;;;;;;3.73;2.53;;;27.30;51.40;;;;;;5006536;28;45270;-60
2022/08/19 19:39:04;;;;;;;2.90;2.43;;;27.40;51.50;;;;;;5002599;28;47034;-58
2022/08/19 19:41:31;;;;;;;2.67;2.47;;;27.30;51.50;;;;;;5004385;28;44691;-61
2022/08/19 19:43:59;;;;;;;2.80;2.50;;;27.30;51.50;;;;;;5010718;28;44743;-59
2022/08/19 19:46:28;;;;;;;2.92;2.47;;;27.30;51.50;;;;;;5008677;28;45861;-61
2022/08/19 19:48:54;;;;;;;4.85;2.90;;;27.30;51.50;;;;;;5010270;28;46187;-60
2022/08/19 19:51:20;;;;;;;3.53;2.55;;;27.30;51.50;;;;;;5003780;28;44707;-59
2022/08/19 19:53:45;;;;;;;3.00;2.70;;;27.30;51.50;;;;;;5010521;28;45920;-60
2022/08/19 19:56:11;;;;;;;3.38;2.47;;;27.30;51.40;;;;;;5005446;28;44874;-61
2022/08/19 19:58:37;;;;;;;4.47;2.60;;;27.30;51.40;;;;;;5012731;28;46161;-61
2022/08/19 20:01:03;;;;;;;4.20;2.70;;;27.30;51.40;;;;;;5005862;28;45642;-60
2022/08/19 20:03:29;;;;;;;3.22;2.40;;;27.30;51.50;;;;;;5008740;28;44996;-59
2022/08/19 20:05:57;;;;;;;3.28;2.42;;;27.30;51.40;;;;;;5012351;28;45551;-60
2022/08/19 20:11:09;;;;;;;3.22;2.92;;;27.20;51.40;;;;;;5003702;28;45207;-60
2022/08/19 20:13:35;;;;;;;3.05;2.60;;;27.30;51.60;;;;;;5012229;28;45265;-58
2022/08/19 20:16:02;;;;;;;3.87;2.40;;;27.30;51.60;;;;;;5011463;28;45496;-58
2022/08/19 20:18:28;;;;;;;3.33;2.63;;;27.20;51.60;;;;;;5009136;28;45804;-59
2022/08/19 20:20:54;;;;;;;2.63;2.40;;;27.20;51.50;;;;;;5011745;28;44836;-60
2022/08/19 20:23:20;;;;;;;3.00;2.40;;;27.20;51.60;;;;;;5006748;28;46431;-60
2022/08/19 20:25:46;;;;;;;2.67;2.47;;;27.20;51.60;;;;;;5012673;28;45257;-58
2022/08/19 20:28:11;;;;;;;4.23;2.80;;;27.20;51.60;;;;;;5013056;28;46027;-59
2022/08/19 20:30:38;;;;;;;2.80;2.60;;;27.20;51.60;;;;;;5004338;28;45229;-59
2022/08/19 20:33:05;;;;;;;3.47;2.70;;;27.20;51.60;;;;;;5009017;28;45187;-61
2022/08/19 20:35:31;;;;;;;2.90;2.55;;;27.20;51.60;;;;;;5005046;28;45644;-61
2022/08/19 20:37:57;;;;;;;2.97;2.50;;;27.20;51.60;;;;;;5007978;28;46457;-60
2022/08/19 20:40:22;;;;;;;4.85;2.95;;;27.20;51.70;;;;;;5003510;28;45318;-60
2022/08/19 20:42:49;;;;;;;3.30;2.60;;;27.20;51.70;;;;;;5011899;28;45192;-62
2022/08/19 20:45:15;;;;;;;3.50;2.90;;;27.20;51.80;;;;;;5014935;28;45074;-61
2022/08/19 20:47:41;;;;;;;4.68;2.78;;;27.20;51.80;;;;;;5014933;28;45821;-61
2022/08/19 20:50:07;;;;;;;4.88;3.03;;;27.20;51.90;;;;;;5009817;28;45190;-61
2022/08/19 20:52:34;;;;;;;3.30;2.58;;;27.20;51.90;;;;;;5006098;28;45502;-60
2022/08/19 20:55:00;;;;;;;3.47;2.83;;;27.10;51.90;;;;;;5010565;28;45248;-61
2022/08/19 20:57:26;;;;;;;3.00;2.80;;;27.10;51.90;;;;;;5018330;28;46190;-61
2022/08/19 20:59:51;;;;;;;3.35;3.00;;;27.10;51.90;;;;;;5006519;28;45308;-60
